createdAt,value
2019-05-20T00:00:41.848Z,14.83
2019-05-20T00:03:12.699Z,13.93
2019-05-20T00:05:41.979Z,15.83
2019-05-20T00:08:15.820Z,14.95
2019-05-20T00:10:45.219Z,14.55
2019-05-20T00:13:14.323Z,14.00
2019-05-20T00:15:43.674Z,14.47
2019-05-20T00:18:12.680Z,14.23
2019-05-20T00:20:42.954Z,13.87
2019-05-20T00:23:14.658Z,13.68
2019-05-20T00:25:43.784Z,15.30
2019-05-20T00:28:12.832Z,13.72
2019-05-20T00:30:41.874Z,14.55
2019-05-20T00:33:10.979Z,14.78
2019-05-20T00:35:43.154Z,14.28
2019-05-20T00:38:13.422Z,15.00
2019-05-20T00:40:42.341Z,14.47
2019-05-20T00:43:11.477Z,14.13
2019-05-20T00:45:42.871Z,13.90
2019-05-20T00:48:13.515Z,14.80
2019-05-20T00:50:42.548Z,16.97
2019-05-20T00:53:11.587Z,15.00
2019-05-20T00:55:40.940Z,14.53
2019-05-20T00:58:10.678Z,14.58
2019-05-20T01:00:43.941Z,15.60
2019-05-20T01:03:37.608Z,14.63
2019-05-20T01:06:07.890Z,14.38
2019-05-20T01:08:36.990Z,14.20
2019-05-20T01:11:13.317Z,15.03
2019-05-20T01:13:51.532Z,14.93
2019-05-20T01:16:22.236Z,14.87
2019-05-20T01:18:55.571Z,14.28
2019-05-20T01:21:25.904Z,14.65
2019-05-20T01:23:55.181Z,14.60
2019-05-20T01:26:26.802Z,14.68
2019-05-20T01:28:56.201Z,14.28
2019-05-20T01:31:25.506Z,14.83
2019-05-20T01:34:01.687Z,14.68
2019-05-20T01:36:35.933Z,13.95
2019-05-20T01:39:10.431Z,13.45
2019-05-20T01:41:43.214Z,13.93
2019-05-20T01:44:16.637Z,14.05
2019-05-20T01:46:46.928Z,13.90
2019-05-20T01:49:19.183Z,15.60
2019-05-20T01:51:54.914Z,13.88
2019-05-20T01:54:31.201Z,15.70
2019-05-20T01:57:03.659Z,14.50
2019-05-20T01:59:34.077Z,16.50
2019-05-20T02:02:06.156Z,14.38
2019-05-20T02:04:37.709Z,14.63
2019-05-20T02:07:12.943Z,14.33
2019-05-20T02:09:51.629Z,14.28
2019-05-20T02:12:25.827Z,15.40
2019-05-20T02:15:20.114Z,14.75
2019-05-20T02:17:54.571Z,14.43
2019-05-20T02:20:37.618Z,15.23
2019-05-20T02:23:20.774Z,14.60
2019-05-20T02:25:50.948Z,14.98
2019-05-20T02:28:21.656Z,14.37
2019-05-20T02:30:57.019Z,14.25
2019-05-20T02:33:49.782Z,15.80
2019-05-20T02:36:03.401Z,15.25
2019-05-20T02:38:32.446Z,14.93
2019-05-20T02:41:01.670Z,14.87
2019-05-20T02:43:40.725Z,16.03
2019-05-20T02:46:20.278Z,16.20
2019-05-20T02:48:52.661Z,15.83
2019-05-20T02:51:39.081Z,17.02
2019-05-20T02:54:16.932Z,17.27
2019-05-20T02:56:47.156Z,16.07
2019-05-20T02:59:22.816Z,18.00
2019-05-20T03:01:51.957Z,18.92
2019-05-20T03:04:21.393Z,18.12
2019-05-20T03:06:56.028Z,18.05
2019-05-20T03:09:38.154Z,19.02
2019-05-20T03:12:07.215Z,18.92
2019-05-20T03:14:36.492Z,18.70
2019-05-20T03:17:05.704Z,19.45
2019-05-20T03:19:35.229Z,19.62
2019-05-20T03:22:04.175Z,18.82
2019-05-20T03:24:33.058Z,21.35
2019-05-20T03:27:02.361Z,19.90
2019-05-20T03:29:31.336Z,20.63
2019-05-20T03:32:00.276Z,19.98
2019-05-20T03:34:45.806Z,21.57
2019-05-20T03:37:00.014Z,20.77
2019-05-20T03:39:28.797Z,21.60
2019-05-20T03:41:57.633Z,21.55
2019-05-20T03:44:26.790Z,19.95
2019-05-20T03:46:55.602Z,21.62
2019-05-20T03:49:24.624Z,18.98
2019-05-20T03:51:53.500Z,20.10
2019-05-20T03:54:22.636Z,20.90
2019-05-20T03:56:51.440Z,19.85
2019-05-20T03:59:20.219Z,19.20
2019-05-20T04:01:49.167Z,20.72
2019-05-20T04:04:18.080Z,20.20
2019-05-20T04:06:47.203Z,21.40
2019-05-20T04:09:15.996Z,22.55
2019-05-20T04:11:44.855Z,20.50
2019-05-20T04:14:13.848Z,21.07
2019-05-20T04:16:43.252Z,20.15
2019-05-20T04:19:12.153Z,21.43
2019-05-20T04:21:41.027Z,20.52
2019-05-20T04:24:10.026Z,21.62
2019-05-20T04:26:38.935Z,19.98
2019-05-20T04:29:08.618Z,23.43
2019-05-20T04:31:37.426Z,21.80
2019-05-20T04:34:06.273Z,22.02
2019-05-20T04:36:35.214Z,22.20
2019-05-20T04:39:05.390Z,20.20
2019-05-20T04:41:35.779Z,19.27
2019-05-20T04:44:07.052Z,20.77
2019-05-20T04:46:35.925Z,20.63
2019-05-20T04:49:04.786Z,21.00
2019-05-20T04:51:33.611Z,19.57
2019-05-20T04:54:02.393Z,19.95
2019-05-20T04:56:31.454Z,20.60
2019-05-20T04:59:01.058Z,20.20
2019-05-20T05:01:30.997Z,21.42
2019-05-20T05:03:59.799Z,20.27
2019-05-20T05:06:28.682Z,20.83
2019-05-20T05:08:57.649Z,20.12
2019-05-20T05:11:26.523Z,20.27
2019-05-20T05:13:55.540Z,20.15
2019-05-20T05:16:25.292Z,20.43
2019-05-20T05:18:54.411Z,20.97
2019-05-20T05:21:23.354Z,20.97
2019-05-20T05:23:59.135Z,19.32
2019-05-20T05:26:23.067Z,19.67
2019-05-20T05:28:52.150Z,19.07
2019-05-20T05:31:21.959Z,18.15
2019-05-20T05:33:54.372Z,19.27
2019-05-20T05:36:22.035Z,18.20
2019-05-20T05:38:50.871Z,20.23
2019-05-20T05:41:19.791Z,18.67
2019-05-20T05:43:48.603Z,17.48
2019-05-20T05:46:17.450Z,18.45
2019-05-20T05:48:46.296Z,18.70
2019-05-20T05:51:15.138Z,17.67
2019-05-20T05:53:44.087Z,18.67
2019-05-20T05:56:12.875Z,19.32
2019-05-20T05:58:41.685Z,17.60
2019-05-20T06:01:10.643Z,16.85
2019-05-20T06:03:39.435Z,17.85
2019-05-20T06:06:12.621Z,18.83
2019-05-20T06:08:39.804Z,17.17
2019-05-20T06:11:08.654Z,17.23
2019-05-20T06:13:37.511Z,18.00
2019-05-20T06:16:06.670Z,16.80
2019-05-20T06:18:35.802Z,17.30
2019-05-20T06:21:04.940Z,18.70
2019-05-20T06:23:33.750Z,16.80
2019-05-20T06:26:02.523Z,16.27
2019-05-20T06:28:31.308Z,17.15
2019-05-20T06:31:00.262Z,17.05
2019-05-20T06:33:29.168Z,17.98
2019-05-20T06:35:58.321Z,15.00
2019-05-20T06:38:41.151Z,15.93
2019-05-20T06:41:10.087Z,16.62
2019-05-20T06:43:39.231Z,15.43
2019-05-20T06:46:08.227Z,16.27
2019-05-20T06:48:37.022Z,15.40
2019-05-20T06:51:06.189Z,14.90
2019-05-20T06:53:35.004Z,16.48
2019-05-20T06:56:03.847Z,16.73
2019-05-20T06:58:32.657Z,14.95
2019-05-20T07:01:01.453Z,15.38
2019-05-20T07:03:30.247Z,15.83
2019-05-20T07:05:59.524Z,16.02
2019-05-20T07:08:28.512Z,14.70
2019-05-20T07:10:57.355Z,14.63
2019-05-20T07:13:26.631Z,15.50
2019-05-20T07:15:55.463Z,14.83
2019-05-20T07:18:27.422Z,14.83
2019-05-20T07:20:55.632Z,16.40
2019-05-20T07:23:24.435Z,15.68
2019-05-20T07:25:53.219Z,18.23
2019-05-20T07:28:22.108Z,16.30
2019-05-20T07:30:50.990Z,16.50
2019-05-20T07:33:19.834Z,16.65
2019-05-20T07:35:48.706Z,16.55
2019-05-20T07:38:17.509Z,16.48
2019-05-20T07:40:46.300Z,15.80
2019-05-20T07:43:15.143Z,15.10
2019-05-20T07:45:45.091Z,15.83
2019-05-20T07:48:14.422Z,15.83
2019-05-20T07:50:44.047Z,18.23
2019-05-20T07:53:13.539Z,17.27
2019-05-20T07:55:47.642Z,16.35
2019-05-20T07:58:18.918Z,17.23
2019-05-20T08:00:47.884Z,16.02
2019-05-20T08:03:17.122Z,16.48
2019-05-20T08:05:46.003Z,19.95
2019-05-20T08:08:14.867Z,15.75
2019-05-20T08:10:43.724Z,16.57
2019-05-20T08:13:12.702Z,17.75
2019-05-20T08:15:41.766Z,15.72
2019-05-20T08:18:10.678Z,15.08
2019-05-20T08:20:39.519Z,16.55
2019-05-20T08:23:08.469Z,16.20
2019-05-20T08:25:37.398Z,15.93
2019-05-20T08:28:06.484Z,17.17
2019-05-20T08:30:36.629Z,16.45
2019-05-20T08:33:06.222Z,16.13
2019-05-20T08:35:35.213Z,15.65
2019-05-20T08:38:04.164Z,18.17
2019-05-20T08:40:33.094Z,15.55
2019-05-20T08:43:01.980Z,16.32
2019-05-20T08:45:30.847Z,16.90
2019-05-20T08:48:00.106Z,15.00
2019-05-20T08:50:28.891Z,15.28
2019-05-20T08:52:58.393Z,13.93
2019-05-20T08:55:27.246Z,16.15
2019-05-20T08:57:56.129Z,16.23
2019-05-20T09:00:25.481Z,15.88
2019-05-20T09:02:54.643Z,15.10
2019-05-20T09:05:23.641Z,16.20
2019-05-20T09:08:02.130Z,15.50
2019-05-20T09:10:23.360Z,16.90
2019-05-20T09:12:52.227Z,15.53
2019-05-20T09:15:21.203Z,15.50
2019-05-20T09:17:50.378Z,15.90
2019-05-20T09:20:19.663Z,14.55
2019-05-20T09:22:48.618Z,15.73
2019-05-20T09:25:23.777Z,15.35
2019-05-20T09:27:52.638Z,15.50
2019-05-20T09:30:21.891Z,15.60
2019-05-20T09:32:51.044Z,15.55
2019-05-20T09:35:19.951Z,15.45
2019-05-20T09:37:48.818Z,15.45
2019-05-20T09:40:40.936Z,15.80
2019-05-20T09:43:09.882Z,15.98
2019-05-20T09:45:38.941Z,16.27
2019-05-20T09:48:08.163Z,18.23
2019-05-20T09:50:37.128Z,15.50
2019-05-20T09:53:07.541Z,14.85
2019-05-20T09:55:36.794Z,14.20
2019-05-20T09:58:06.485Z,16.87
2019-05-20T10:00:35.511Z,15.60
2019-05-20T10:03:05.753Z,16.17
2019-05-20T10:05:37.400Z,15.63
2019-05-20T10:08:05.937Z,15.63
2019-05-20T10:10:34.815Z,15.93
2019-05-20T10:13:03.888Z,16.57
2019-05-20T10:15:33.139Z,15.20
2019-05-20T10:18:01.980Z,15.65
2019-05-20T10:20:31.122Z,15.53
2019-05-20T10:22:59.985Z,15.72
2019-05-20T10:25:29.279Z,16.20
2019-05-20T10:27:58.191Z,16.60
2019-05-20T10:30:27.128Z,16.77
2019-05-20T10:32:55.931Z,17.98
2019-05-20T10:35:24.811Z,15.90
2019-05-20T10:37:53.675Z,16.83
2019-05-20T10:40:22.699Z,16.02
2019-05-20T10:42:51.528Z,15.48
2019-05-20T10:45:20.536Z,14.53
2019-05-20T10:47:49.829Z,14.78
2019-05-20T10:50:18.775Z,17.02
2019-05-20T10:52:47.575Z,15.10
2019-05-20T10:55:18.134Z,16.03
2019-05-20T10:57:46.992Z,17.52
2019-05-20T11:00:16.541Z,16.60
2019-05-20T11:02:45.389Z,16.77
2019-05-20T11:05:14.412Z,17.98
2019-05-20T11:07:43.232Z,18.32
2019-05-20T11:10:12.571Z,18.15
2019-05-20T11:12:41.452Z,20.05
2019-05-20T11:15:10.830Z,17.50
2019-05-20T11:17:39.743Z,18.82
2019-05-20T11:20:09.256Z,17.27
2019-05-20T11:22:38.123Z,20.75
2019-05-20T11:25:07.267Z,17.87
2019-05-20T11:27:36.207Z,17.37
2019-05-20T11:30:06.016Z,18.17
2019-05-20T11:32:34.985Z,18.20
2019-05-20T11:35:04.038Z,16.95
2019-05-20T11:37:32.907Z,16.65
2019-05-20T11:40:02.071Z,15.40
2019-05-20T11:42:31.363Z,17.03
2019-05-20T11:45:00.173Z,17.17
2019-05-20T11:47:29.086Z,18.17
2019-05-20T11:49:58.179Z,18.17
2019-05-20T11:52:27.054Z,19.42
2019-05-20T11:54:55.913Z,20.32
2019-05-20T11:57:25.140Z,19.77
2019-05-20T11:59:54.057Z,20.35
2019-05-20T12:02:22.943Z,21.73
2019-05-20T12:04:52.020Z,26.82
2019-05-20T12:07:20.897Z,22.53
2019-05-20T12:09:50.509Z,24.77
2019-05-20T12:12:19.594Z,25.12
2019-05-20T12:14:48.707Z,27.97
2019-05-20T12:17:17.531Z,27.37
2019-05-20T12:19:46.708Z,21.80
2019-05-20T12:22:15.505Z,17.17
2019-05-20T12:24:44.415Z,17.37
2019-05-20T12:27:13.299Z,19.35
2019-05-20T12:29:42.126Z,19.57
2019-05-20T12:32:11.002Z,18.57
2019-05-20T12:34:39.897Z,21.05
2019-05-20T12:37:08.774Z,21.60
2019-05-20T12:39:37.639Z,24.60
2019-05-20T12:42:06.587Z,21.50
2019-05-20T12:44:35.534Z,21.07
2019-05-20T12:47:04.644Z,23.02
2019-05-20T12:49:33.601Z,23.80
2019-05-20T12:52:02.525Z,24.23
2019-05-20T12:54:31.408Z,24.63
2019-05-20T12:57:00.303Z,24.52
2019-05-20T12:59:29.107Z,23.70
2019-05-20T13:01:58.109Z,23.47
2019-05-20T13:04:27.106Z,28.02
2019-05-20T13:06:55.895Z,31.50
2019-05-20T13:09:24.769Z,30.30
2019-05-20T13:11:53.646Z,32.67
2019-05-20T13:14:22.431Z,34.65
2019-05-20T13:16:51.368Z,34.53
2019-05-20T13:19:20.194Z,29.23
2019-05-20T13:21:49.059Z,32.17
2019-05-20T13:24:17.901Z,29.57
2019-05-20T13:26:47.175Z,31.75
2019-05-20T13:29:15.986Z,29.82
2019-05-20T13:31:44.788Z,29.75
2019-05-20T13:34:13.653Z,31.25
2019-05-20T13:36:42.439Z,31.43
2019-05-20T13:39:11.260Z,30.45
2019-05-20T13:41:40.383Z,31.07
2019-05-20T13:44:09.247Z,30.23
2019-05-20T13:46:38.129Z,32.88
2019-05-20T13:49:06.922Z,32.85
2019-05-20T13:51:38.496Z,28.62
2019-05-20T13:54:06.378Z,27.55
2019-05-20T13:56:35.242Z,30.75
2019-05-20T13:59:04.133Z,29.72
2019-05-20T14:01:32.907Z,25.90
2019-05-20T14:04:01.747Z,27.20
2019-05-20T14:06:30.544Z,25.95
2019-05-20T14:08:59.306Z,28.25
2019-05-20T14:11:34.558Z,24.95
2019-05-20T14:13:58.846Z,31.02
2019-05-20T14:16:27.817Z,27.65
2019-05-20T14:18:57.172Z,30.63
2019-05-20T14:21:26.255Z,26.37
2019-05-20T14:23:55.055Z,29.07
2019-05-20T14:26:24.202Z,31.17
2019-05-20T14:28:52.991Z,27.15
2019-05-20T14:31:21.778Z,26.05
2019-05-20T14:33:50.638Z,25.87
2019-05-20T14:36:38.494Z,27.62
2019-05-20T14:38:52.815Z,26.97
2019-05-20T14:41:22.245Z,24.23
2019-05-20T14:43:51.254Z,24.98
2019-05-20T14:46:20.086Z,23.90
2019-05-20T14:48:48.918Z,27.30
2019-05-20T14:51:17.974Z,22.87
2019-05-20T14:53:46.780Z,24.55
2019-05-20T14:56:15.594Z,20.27
2019-05-20T14:58:44.384Z,22.23
2019-05-20T15:01:13.267Z,23.40
2019-05-20T15:03:42.084Z,22.80
2019-05-20T15:06:11.034Z,23.43
2019-05-20T15:08:39.919Z,21.75
2019-05-20T15:11:08.687Z,21.93
2019-05-20T15:13:37.850Z,21.00
2019-05-20T15:16:06.815Z,22.58
2019-05-20T15:18:35.690Z,22.30
2019-05-20T15:21:04.563Z,22.30
2019-05-20T15:23:33.669Z,22.17
2019-05-20T15:26:02.546Z,24.07
2019-05-20T15:28:31.477Z,22.77
2019-05-20T15:31:00.364Z,22.58
2019-05-20T15:33:29.254Z,22.90
2019-05-20T15:35:58.036Z,22.85
2019-05-20T15:38:26.947Z,22.13
2019-05-20T15:40:55.719Z,23.00
2019-05-20T15:43:24.538Z,23.30
2019-05-20T15:45:53.341Z,24.57
2019-05-20T15:48:22.204Z,24.35
2019-05-20T15:50:51.122Z,24.18
2019-05-20T15:53:20.228Z,24.00
2019-05-20T15:55:49.056Z,24.85
2019-05-20T15:58:17.900Z,25.92
2019-05-20T16:00:46.907Z,26.17
2019-05-20T16:03:16.227Z,26.47
2019-05-20T16:05:45.016Z,27.55
2019-05-20T16:08:13.826Z,29.23
2019-05-20T16:10:42.728Z,31.20
2019-05-20T16:13:11.838Z,29.65
2019-05-20T16:15:40.729Z,30.60
2019-05-20T16:18:09.609Z,33.50
2019-05-20T16:20:38.591Z,34.58
2019-05-20T16:23:07.391Z,32.38
2019-05-20T16:25:36.162Z,32.40
2019-05-20T16:28:05.378Z,32.67
2019-05-20T16:30:34.150Z,34.40
2019-05-20T16:33:03.273Z,34.05
2019-05-20T16:35:32.061Z,36.53
2019-05-20T16:38:00.824Z,37.75
2019-05-20T16:40:30.270Z,36.08
2019-05-20T16:42:59.114Z,38.75
2019-05-20T16:45:28.110Z,41.77
2019-05-20T16:47:56.929Z,39.80
2019-05-20T16:50:25.831Z,25.75
2019-05-20T16:52:54.667Z,16.87
2019-05-20T16:55:23.598Z,15.25
2019-05-20T16:57:52.429Z,14.38
2019-05-20T17:00:31.182Z,14.60
2019-05-20T17:02:51.855Z,10.00
2019-05-20T17:05:20.742Z,8.13
2019-05-20T17:07:49.515Z,7.30
2019-05-20T17:10:18.487Z,7.00
2019-05-20T17:12:47.261Z,6.35
2019-05-20T17:15:16.187Z,8.95
2019-05-20T17:17:45.050Z,14.40
2019-05-20T17:20:14.327Z,12.13
2019-05-20T17:22:43.090Z,10.75
2019-05-20T17:25:12.003Z,10.85
2019-05-20T17:27:40.875Z,10.70
2019-05-20T17:30:09.964Z,11.83
2019-05-20T17:32:38.810Z,10.58
2019-05-20T17:35:08.306Z,8.63
2019-05-20T17:37:37.260Z,8.83
2019-05-20T17:40:06.715Z,8.70
2019-05-20T17:42:35.603Z,8.20
2019-05-20T17:45:04.835Z,7.57
2019-05-20T17:47:33.932Z,7.37
2019-05-20T17:50:02.854Z,7.72
2019-05-20T17:52:31.831Z,6.63
2019-05-20T17:55:00.665Z,8.20
2019-05-20T17:57:29.541Z,8.03
2019-05-20T17:59:58.528Z,11.03
2019-05-20T18:02:27.407Z,9.15
2019-05-20T18:04:56.294Z,9.98
2019-05-20T18:07:25.232Z,10.80
2019-05-20T18:09:55.371Z,12.33
2019-05-20T18:12:24.163Z,11.00
2019-05-20T18:14:54.630Z,11.83
2019-05-20T18:17:23.699Z,12.90
2019-05-20T18:19:52.579Z,13.08
2019-05-20T18:22:21.439Z,11.90
2019-05-20T18:24:50.403Z,13.28
2019-05-20T18:27:19.282Z,13.80
2019-05-20T18:29:48.211Z,12.53
2019-05-20T18:32:17.400Z,12.25
2019-05-20T18:34:46.278Z,10.13
2019-05-20T18:37:15.072Z,10.58
2019-05-20T18:39:43.869Z,9.30
2019-05-20T18:42:12.829Z,9.23
2019-05-20T18:44:41.623Z,9.95
2019-05-20T18:47:10.490Z,9.65
2019-05-20T18:49:41.278Z,10.30
2019-05-20T18:52:10.340Z,8.85
2019-05-20T18:54:39.119Z,7.90
2019-05-20T18:57:08.732Z,8.55
2019-05-20T18:59:37.605Z,9.13
2019-05-20T19:02:06.573Z,9.08
2019-05-20T19:04:35.361Z,9.57
2019-05-20T19:07:04.233Z,8.55
2019-05-20T19:09:33.113Z,8.73
2019-05-20T19:12:02.010Z,9.45
2019-05-20T19:14:30.880Z,9.23
2019-05-20T19:16:59.835Z,10.13
2019-05-20T19:19:28.797Z,9.40
2019-05-20T19:21:57.634Z,9.88
2019-05-20T19:24:26.990Z,9.25
2019-05-20T19:26:55.864Z,8.30
2019-05-20T19:29:24.649Z,9.00
2019-05-20T19:32:01.530Z,8.38
2019-05-20T19:34:23.998Z,10.85
2019-05-20T19:36:52.870Z,8.68
2019-05-20T19:39:21.738Z,9.18
2019-05-20T19:41:50.836Z,8.40
2019-05-20T19:44:19.714Z,9.30
2019-05-20T19:46:48.864Z,9.23
2019-05-20T19:49:17.633Z,10.20
2019-05-20T19:51:46.503Z,7.95
2019-05-20T19:54:16.614Z,9.45
2019-05-20T19:56:45.599Z,9.68
2019-05-20T19:59:14.550Z,10.70
2019-05-20T20:01:43.371Z,9.25
2019-05-20T20:04:12.245Z,11.73
2019-05-20T20:06:41.172Z,9.08
2019-05-20T20:09:10.047Z,9.60
2019-05-20T20:11:38.855Z,10.20
2019-05-20T20:14:07.827Z,11.05
2019-05-20T20:16:36.598Z,9.38
2019-05-20T20:19:05.551Z,9.95
2019-05-20T20:21:34.350Z,11.40
2019-05-20T20:24:03.246Z,10.23
2019-05-20T20:26:32.019Z,11.20
2019-05-20T20:29:00.944Z,10.48
2019-05-20T20:31:29.972Z,11.03
2019-05-20T20:33:58.876Z,9.43
2019-05-20T20:36:27.650Z,10.98
2019-05-20T20:38:56.461Z,8.83
2019-05-20T20:41:25.639Z,7.33
2019-05-20T20:43:54.532Z,8.18
2019-05-20T20:46:32.315Z,7.87
2019-05-20T20:49:01.143Z,9.10
2019-05-20T20:51:32.431Z,8.45
2019-05-20T20:54:01.307Z,8.73
2019-05-20T20:56:30.207Z,8.63
2019-05-20T20:58:59.028Z,8.90
2019-05-20T21:01:27.985Z,10.48
2019-05-20T21:03:56.802Z,8.30
2019-05-20T21:06:25.707Z,11.25
2019-05-20T21:08:54.581Z,10.45
2019-05-20T21:11:23.374Z,10.15
2019-05-20T21:13:52.178Z,10.48
2019-05-20T21:16:21.023Z,11.20
2019-05-20T21:18:49.823Z,11.05
2019-05-20T21:21:18.608Z,11.37
2019-05-20T21:23:47.378Z,12.60
2019-05-20T21:26:16.162Z,11.93
2019-05-20T21:28:44.970Z,12.47
2019-05-20T21:31:13.846Z,13.53
2019-05-20T21:33:42.666Z,12.95
2019-05-20T21:36:11.435Z,13.95
2019-05-20T21:38:40.739Z,15.08
2019-05-20T21:41:09.522Z,13.58
2019-05-20T21:43:38.845Z,15.03
2019-05-20T21:46:07.651Z,15.20
2019-05-20T21:48:36.537Z,16.02
2019-05-20T21:51:06.462Z,16.37
2019-05-20T21:53:35.294Z,15.85
2019-05-20T21:56:04.243Z,16.17
2019-05-20T21:58:33.026Z,15.93
2019-05-20T22:01:02.061Z,17.03
2019-05-20T22:03:31.083Z,16.97
2019-05-20T22:05:59.866Z,16.42
2019-05-20T22:08:28.734Z,17.00
2019-05-20T22:10:57.911Z,17.12
2019-05-20T22:13:26.710Z,17.73
2019-05-20T22:15:55.803Z,19.05
2019-05-20T22:18:24.652Z,20.73
2019-05-20T22:20:53.450Z,20.92
2019-05-20T22:23:28.059Z,22.10
2019-05-20T22:25:57.210Z,22.85
2019-05-20T22:28:26.056Z,22.15
2019-05-20T22:30:54.928Z,21.65
2019-05-20T22:33:40.294Z,21.97
2019-05-20T22:35:56.111Z,20.52
2019-05-20T22:38:24.918Z,21.95
2019-05-20T22:40:53.722Z,21.33
2019-05-20T22:43:22.581Z,19.67
2019-05-20T22:45:51.549Z,22.00
2019-05-20T22:48:20.458Z,21.52
2019-05-20T22:50:49.282Z,21.27
2019-05-20T22:53:18.133Z,22.40
2019-05-20T22:56:06.284Z,21.82
2019-05-20T22:58:38.439Z,22.07
2019-05-20T23:01:05.688Z,21.87
2019-05-20T23:03:34.507Z,22.15
2019-05-20T23:06:03.438Z,21.75
2019-05-20T23:08:32.300Z,21.95
2019-05-20T23:11:01.144Z,20.83
2019-05-20T23:13:30.236Z,20.35
2019-05-20T23:15:59.285Z,19.62
2019-05-20T23:18:28.095Z,20.08
2019-05-20T23:20:57.010Z,22.05
2019-05-20T23:23:25.871Z,19.65
2019-05-20T23:25:54.754Z,19.65
2019-05-20T23:28:23.619Z,21.05
2019-05-20T23:30:52.488Z,20.67
2019-05-20T23:33:21.358Z,21.33
2019-05-20T23:35:50.158Z,21.30
2019-05-20T23:38:18.932Z,19.82
2019-05-20T23:40:48.028Z,20.08
2019-05-20T23:43:16.906Z,19.90
2019-05-20T23:45:45.713Z,19.67
2019-05-20T23:48:14.519Z,19.70
2019-05-20T23:50:43.283Z,20.92
2019-05-20T23:53:12.243Z,18.73
2019-05-20T23:55:41.051Z,20.62
2019-05-20T23:58:09.897Z,20.15
